sensor_id;sensor_type;location;lat;lon;timestamp;temperature;humidity
25332;DHT22;13284;52.748;13.452;2023-06-05T00:00:33;11.90;99.90
25332;DHT22;13284;52.748;13.452;2023-06-05T00:02:59;11.80;99.90
25332;DHT22;13284;52.748;13.452;2023-06-05T00:05:25;11.90;99.90
25332;DHT22;13284;52.748;13.452;2023-06-05T00:07:52;11.80;99.90
25332;DHT22;13284;52.748;13.452;2023-06-05T00:10:17;11.80;99.90
25332;DHT22;13284;52.748;13.452;2023-06-05T00:12:43;11.80;99.90
25332;DHT22;13284;52.748;13.452;2023-06-05T00:15:09;11.70;99.90
25332;DHT22;13284;52.748;13.452;2023-06-05T00:17:35;11.70;99.90
25332;DHT22;13284;52.748;13.452;2023-06-05T00:20:02;11.70;99.90
25332;DHT22;13284;52.748;13.452;2023-06-05T00:22:28;11.70;99.90
25332;DHT22;13284;52.748;13.452;2023-06-05T00:24:56;11.60;99.90
25332;DHT22;13284;52.748;13.452;2023-06-05T00:27:22;11.70;99.90
25332;DHT22;13284;52.748;13.452;2023-06-05T00:29:48;11.70;99.90
25332;DHT22;13284;52.748;13.452;2023-06-05T00:32:13;11.70;99.90
25332;DHT22;13284;52.748;13.452;2023-06-05T00:34:39;11.70;99.90
25332;DHT22;13284;52.748;13.452;2023-06-05T00:37:05;11.70;99.90
25332;DHT22;13284;52.748;13.452;2023-06-05T00:39:32;11.60;99.90
25332;DHT22;13284;52.748;13.452;2023-06-05T00:41:58;11.60;99.90
25332;DHT22;13284;52.748;13.452;2023-06-05T00:44:23;11.50;99.90
25332;DHT22;13284;52.748;13.452;2023-06-05T00:46:50;11.50;99.90
25332;DHT22;13284;52.748;13.452;2023-06-05T00:49:17;11.50;99.90
25332;DHT22;13284;52.748;13.452;2023-06-05T00:51:44;11.50;99.90
25332;DHT22;13284;52.748;13.452;2023-06-05T00:54:11;11.60;99.90
25332;DHT22;13284;52.748;13.452;2023-06-05T00:56:37;11.50;99.90
25332;DHT22;13284;52.748;13.452;2023-06-05T00:59:05;11.50;99.90
25332;DHT22;13284;52.748;13.452;2023-06-05T01:01:30;11.50;99.90
25332;DHT22;13284;52.748;13.452;2023-06-05T01:03:58;11.50;99.90
25332;DHT22;13284;52.748;13.452;2023-06-05T01:06:28;11.50;99.90
25332;DHT22;13284;52.748;13.452;2023-06-05T01:08:56;11.40;99.90
25332;DHT22;13284;52.748;13.452;2023-06-05T01:11:43;11.40;99.90
25332;DHT22;13284;52.748;13.452;2023-06-05T01:14:24;11.30;99.90
25332;DHT22;13284;52.748;13.452;2023-06-05T01:16:56;11.30;99.90
25332;DHT22;13284;52.748;13.452;2023-06-05T01:19:26;11.20;99.90
25332;DHT22;13284;52.748;13.452;2023-06-05T01:22:01;11.20;99.90
25332;DHT22;13284;52.748;13.452;2023-06-05T01:24:27;11.20;99.90
25332;DHT22;13284;52.748;13.452;2023-06-05T01:27:19;11.20;99.90
25332;DHT22;13284;52.748;13.452;2023-06-05T01:30:01;11.20;99.90
25332;DHT22;13284;52.748;13.452;2023-06-05T01:35:11;11.20;99.90
25332;DHT22;13284;52.748;13.452;2023-06-05T01:37:43;11.20;99.90
25332;DHT22;13284;52.748;13.452;2023-06-05T01:40:19;11.20;99.90
25332;DHT22;13284;52.748;13.452;2023-06-05T01:42:46;11.10;99.90
25332;DHT22;13284;52.748;13.452;2023-06-05T01:45:14;11.10;99.90
25332;DHT22;13284;52.748;13.452;2023-06-05T01:47:41;11.10;99.90
25332;DHT22;13284;52.748;13.452;2023-06-05T01:50:08;11.10;99.90
25332;DHT22;13284;52.748;13.452;2023-06-05T01:52:35;11.00;99.90
25332;DHT22;13284;52.748;13.452;2023-06-05T01:55:14;10.90;99.90
25332;DHT22;13284;52.748;13.452;2023-06-05T01:57:42;10.90;99.90
25332;DHT22;13284;52.748;13.452;2023-06-05T02:00:09;10.80;99.90
25332;DHT22;13284;52.748;13.452;2023-06-05T02:02:39;10.80;99.90
25332;DHT22;13284;52.748;13.452;2023-06-05T02:05:09;10.80;99.90
25332;DHT22;13284;52.748;13.452;2023-06-05T02:07:41;10.70;99.90
25332;DHT22;13284;52.748;13.452;2023-06-05T02:10:08;10.70;99.90
25332;DHT22;13284;52.748;13.452;2023-06-05T02:12:34;10.70;99.90
25332;DHT22;13284;52.748;13.452;2023-06-05T02:15:00;10.70;99.90
25332;DHT22;13284;52.748;13.452;2023-06-05T02:17:26;10.60;99.90
25332;DHT22;13284;52.748;13.452;2023-06-05T02:19:52;10.50;99.90
25332;DHT22;13284;52.748;13.452;2023-06-05T02:22:17;10.50;99.90
25332;DHT22;13284;52.748;13.452;2023-06-05T02:24:43;10.40;99.90
25332;DHT22;13284;52.748;13.452;2023-06-05T02:27:09;10.30;99.90
25332;DHT22;13284;52.748;13.452;2023-06-05T02:29:36;10.40;99.90
25332;DHT22;13284;52.748;13.452;2023-06-05T02:32:03;10.40;99.90
25332;DHT22;13284;52.748;13.452;2023-06-05T02:34:28;10.30;99.90
25332;DHT22;13284;52.748;13.452;2023-06-05T02:36:54;10.30;99.90
25332;DHT22;13284;52.748;13.452;2023-06-05T02:39:21;10.20;99.90
25332;DHT22;13284;52.748;13.452;2023-06-05T02:41:46;10.20;99.90
25332;DHT22;13284;52.748;13.452;2023-06-05T02:44:12;10.20;99.90
25332;DHT22;13284;52.748;13.452;2023-06-05T02:46:37;10.20;99.90
25332;DHT22;13284;52.748;13.452;2023-06-05T02:49:03;10.20;99.90
25332;DHT22;13284;52.748;13.452;2023-06-05T02:51:28;10.10;99.90
25332;DHT22;13284;52.748;13.452;2023-06-05T02:53:54;10.10;99.90
25332;DHT22;13284;52.748;13.452;2023-06-05T02:56:19;10.10;99.90
25332;DHT22;13284;52.748;13.452;2023-06-05T02:58:47;10.10;99.90
25332;DHT22;13284;52.748;13.452;2023-06-05T03:01:12;10.10;99.90
25332;DHT22;13284;52.748;13.452;2023-06-05T03:03:38;10.20;99.90
25332;DHT22;13284;52.748;13.452;2023-06-05T03:06:04;10.20;99.90
25332;DHT22;13284;52.748;13.452;2023-06-05T03:08:31;10.20;99.90
25332;DHT22;13284;52.748;13.452;2023-06-05T03:11:05;10.30;99.90
25332;DHT22;13284;52.748;13.452;2023-06-05T03:13:31;10.20;99.90
25332;DHT22;13284;52.748;13.452;2023-06-05T03:15:59;10.20;99.90
25332;DHT22;13284;52.748;13.452;2023-06-05T03:18:29;10.10;99.90
25332;DHT22;13284;52.748;13.452;2023-06-05T03:20:55;10.20;99.90
25332;DHT22;13284;52.748;13.452;2023-06-05T03:23:27;10.20;99.90
25332;DHT22;13284;52.748;13.452;2023-06-05T03:25:54;10.20;99.90
25332;DHT22;13284;52.748;13.452;2023-06-05T03:28:21;10.20;99.90
25332;DHT22;13284;52.748;13.452;2023-06-05T03:30:47;10.20;99.90
25332;DHT22;13284;52.748;13.452;2023-06-05T03:33:13;10.20;99.90
25332;DHT22;13284;52.748;13.452;2023-06-05T03:35:39;10.10;99.90
25332;DHT22;13284;52.748;13.452;2023-06-05T03:38:05;10.10;99.90
25332;DHT22;13284;52.748;13.452;2023-06-05T03:40:31;10.00;99.90
25332;DHT22;13284;52.748;13.452;2023-06-05T03:42:57;10.10;99.90
25332;DHT22;13284;52.748;13.452;2023-06-05T03:45:22;10.10;99.90
25332;DHT22;13284;52.748;13.452;2023-06-05T03:47:48;10.10;99.90
25332;DHT22;13284;52.748;13.452;2023-06-05T03:50:14;10.20;99.90
25332;DHT22;13284;52.748;13.452;2023-06-05T03:52:40;10.20;99.90
25332;DHT22;13284;52.748;13.452;2023-06-05T03:55:07;10.30;99.90
25332;DHT22;13284;52.748;13.452;2023-06-05T03:57:36;10.40;99.90
25332;DHT22;13284;52.748;13.452;2023-06-05T04:00:05;10.40;99.90
25332;DHT22;13284;52.748;13.452;2023-06-05T04:02:35;10.50;99.90
25332;DHT22;13284;52.748;13.452;2023-06-05T04:05:00;10.50;99.90
25332;DHT22;13284;52.748;13.452;2023-06-05T04:07:26;10.60;99.90
25332;DHT22;13284;52.748;13.452;2023-06-05T04:09:51;10.60;99.90
25332;DHT22;13284;52.748;13.452;2023-06-05T04:12:17;10.70;99.90
25332;DHT22;13284;52.748;13.452;2023-06-05T04:14:45;10.80;99.90
25332;DHT22;13284;52.748;13.452;2023-06-05T04:17:11;11.00;99.90
25332;DHT22;13284;52.748;13.452;2023-06-05T04:19:39;11.10;99.90
25332;DHT22;13284;52.748;13.452;2023-06-05T04:22:05;11.30;99.90
25332;DHT22;13284;52.748;13.452;2023-06-05T04:24:31;11.60;99.90
25332;DHT22;13284;52.748;13.452;2023-06-05T04:26:56;11.80;99.90
25332;DHT22;13284;52.748;13.452;2023-06-05T04:29:24;12.00;99.90
25332;DHT22;13284;52.748;13.452;2023-06-05T04:31:50;12.10;99.90
25332;DHT22;13284;52.748;13.452;2023-06-05T04:34:16;12.40;99.90
25332;DHT22;13284;52.748;13.452;2023-06-05T04:36:43;12.50;99.90
25332;DHT22;13284;52.748;13.452;2023-06-05T04:39:09;12.70;99.90
25332;DHT22;13284;52.748;13.452;2023-06-05T04:41:40;12.90;99.90
25332;DHT22;13284;52.748;13.452;2023-06-05T04:44:11;13.10;99.90
25332;DHT22;13284;52.748;13.452;2023-06-05T04:46:37;13.30;99.90
25332;DHT22;13284;52.748;13.452;2023-06-05T04:49:07;13.50;99.90
25332;DHT22;13284;52.748;13.452;2023-06-05T04:51:33;13.60;99.90
25332;DHT22;13284;52.748;13.452;2023-06-05T04:53:58;13.70;99.90
25332;DHT22;13284;52.748;13.452;2023-06-05T04:56:24;14.00;99.90
25332;DHT22;13284;52.748;13.452;2023-06-05T04:58:51;14.00;99.90
25332;DHT22;13284;52.748;13.452;2023-06-05T05:01:17;14.10;99.90
25332;DHT22;13284;52.748;13.452;2023-06-05T05:03:43;14.20;99.90
25332;DHT22;13284;52.748;13.452;2023-06-05T05:06:09;14.40;99.90
25332;DHT22;13284;52.748;13.452;2023-06-05T05:08:35;14.60;99.90
25332;DHT22;13284;52.748;13.452;2023-06-05T05:11:02;14.70;99.90
25332;DHT22;13284;52.748;13.452;2023-06-05T05:13:27;14.90;99.90
25332;DHT22;13284;52.748;13.452;2023-06-05T05:15:53;15.10;99.90
25332;DHT22;13284;52.748;13.452;2023-06-05T05:18:19;15.30;99.90
25332;DHT22;13284;52.748;13.452;2023-06-05T05:20:45;15.30;99.90
25332;DHT22;13284;52.748;13.452;2023-06-05T05:23:11;15.40;99.90
25332;DHT22;13284;52.748;13.452;2023-06-05T05:25:37;15.60;99.90
25332;DHT22;13284;52.748;13.452;2023-06-05T05:28:03;15.80;99.90
25332;DHT22;13284;52.748;13.452;2023-06-05T05:30:29;15.90;99.90
25332;DHT22;13284;52.748;13.452;2023-06-05T05:32:55;16.00;99.90
25332;DHT22;13284;52.748;13.452;2023-06-05T05:35:22;16.10;99.90
25332;DHT22;13284;52.748;13.452;2023-06-05T05:37:47;16.10;99.90
25332;DHT22;13284;52.748;13.452;2023-06-05T05:40:13;16.20;99.90
25332;DHT22;13284;52.748;13.452;2023-06-05T05:42:38;16.60;99.90
25332;DHT22;13284;52.748;13.452;2023-06-05T05:45:04;16.80;99.90
25332;DHT22;13284;52.748;13.452;2023-06-05T05:47:30;17.00;99.90
25332;DHT22;13284;52.748;13.452;2023-06-05T05:49:56;17.10;99.90
25332;DHT22;13284;52.748;13.452;2023-06-05T05:52:21;17.20;99.90
25332;DHT22;13284;52.748;13.452;2023-06-05T05:54:48;17.30;99.90
25332;DHT22;13284;52.748;13.452;2023-06-05T05:57:13;17.40;99.90
25332;DHT22;13284;52.748;13.452;2023-06-05T05:59:40;17.50;99.90
25332;DHT22;13284;52.748;13.452;2023-06-05T06:02:07;17.70;99.90
25332;DHT22;13284;52.748;13.452;2023-06-05T06:04:35;17.60;99.90
25332;DHT22;13284;52.748;13.452;2023-06-05T06:07:03;17.80;99.90
25332;DHT22;13284;52.748;13.452;2023-06-05T06:09:30;18.10;99.90
25332;DHT22;13284;52.748;13.452;2023-06-05T06:11:58;18.30;99.90
25332;DHT22;13284;52.748;13.452;2023-06-05T06:14:30;18.50;99.90
25332;DHT22;13284;52.748;13.452;2023-06-05T06:16:55;18.60;99.90
25332;DHT22;13284;52.748;13.452;2023-06-05T06:19:24;18.90;99.90
25332;DHT22;13284;52.748;13.452;2023-06-05T06:21:53;18.90;99.90
25332;DHT22;13284;52.748;13.452;2023-06-05T06:24:19;18.90;99.90
25332;DHT22;13284;52.748;13.452;2023-06-05T06:26:48;19.00;99.90
25332;DHT22;13284;52.748;13.452;2023-06-05T06:29:18;19.40;99.90
25332;DHT22;13284;52.748;13.452;2023-06-05T06:31:48;19.50;99.90
25332;DHT22;13284;52.748;13.452;2023-06-05T06:34:14;19.80;99.90
25332;DHT22;13284;52.748;13.452;2023-06-05T06:36:40;20.00;99.90
25332;DHT22;13284;52.748;13.452;2023-06-05T06:39:09;20.20;99.90
25332;DHT22;13284;52.748;13.452;2023-06-05T06:41:36;20.00;99.90
25332;DHT22;13284;52.748;13.452;2023-06-05T06:44:02;19.90;99.90
25332;DHT22;13284;52.748;13.452;2023-06-05T06:46:28;20.50;99.90
25332;DHT22;13284;52.748;13.452;2023-06-05T06:48:53;20.60;99.90
25332;DHT22;13284;52.748;13.452;2023-06-05T06:51:19;20.80;99.90
25332;DHT22;13284;52.748;13.452;2023-06-05T06:53:47;20.50;99.90
25332;DHT22;13284;52.748;13.452;2023-06-05T06:56:16;20.50;99.90
25332;DHT22;13284;52.748;13.452;2023-06-05T06:58:43;20.30;99.90
25332;DHT22;13284;52.748;13.452;2023-06-05T07:01:09;20.20;99.90
25332;DHT22;13284;52.748;13.452;2023-06-05T07:03:36;20.10;99.90
25332;DHT22;13284;52.748;13.452;2023-06-05T07:06:06;20.20;99.90
25332;DHT22;13284;52.748;13.452;2023-06-05T07:08:37;20.30;99.90
25332;DHT22;13284;52.748;13.452;2023-06-05T07:11:03;20.60;99.20
25332;DHT22;13284;52.748;13.452;2023-06-05T07:13:28;20.40;99.80
25332;DHT22;13284;52.748;13.452;2023-06-05T07:15:54;20.00;99.90
25332;DHT22;13284;52.748;13.452;2023-06-05T07:18:24;20.10;99.70
25332;DHT22;13284;52.748;13.452;2023-06-05T07:20:49;20.30;99.90
25332;DHT22;13284;52.748;13.452;2023-06-05T07:23:15;20.50;99.90
25332;DHT22;13284;52.748;13.452;2023-06-05T07:25:42;21.00;99.70
25332;DHT22;13284;52.748;13.452;2023-06-05T07:28:09;21.20;99.30
25332;DHT22;13284;52.748;13.452;2023-06-05T07:30:37;21.30;98.80
25332;DHT22;13284;52.748;13.452;2023-06-05T07:33:02;21.40;98.50
25332;DHT22;13284;52.748;13.452;2023-06-05T07:35:29;21.40;99.60
25332;DHT22;13284;52.748;13.452;2023-06-05T07:37:54;21.50;99.40
25332;DHT22;13284;52.748;13.452;2023-06-05T07:40:20;21.30;98.60
25332;DHT22;13284;52.748;13.452;2023-06-05T07:42:46;21.50;98.90
25332;DHT22;13284;52.748;13.452;2023-06-05T07:45:11;21.60;97.50
25332;DHT22;13284;52.748;13.452;2023-06-05T07:47:37;21.70;97.70
25332;DHT22;13284;52.748;13.452;2023-06-05T07:50:03;21.90;96.50
25332;DHT22;13284;52.748;13.452;2023-06-05T07:52:31;22.10;97.20
25332;DHT22;13284;52.748;13.452;2023-06-05T07:54:57;22.30;96.00
25332;DHT22;13284;52.748;13.452;2023-06-05T07:57:23;22.60;94.80
25332;DHT22;13284;52.748;13.452;2023-06-05T07:59:52;23.10;94.80
25332;DHT22;13284;52.748;13.452;2023-06-05T08:02:19;23.50;94.00
25332;DHT22;13284;52.748;13.452;2023-06-05T08:04:45;24.20;93.20
25332;DHT22;13284;52.748;13.452;2023-06-05T08:07:13;24.70;92.30
25332;DHT22;13284;52.748;13.452;2023-06-05T08:09:39;24.90;89.80
25332;DHT22;13284;52.748;13.452;2023-06-05T08:12:05;25.30;90.50
25332;DHT22;13284;52.748;13.452;2023-06-05T08:14:34;25.40;88.20
25332;DHT22;13284;52.748;13.452;2023-06-05T08:17:00;25.40;86.30
25332;DHT22;13284;52.748;13.452;2023-06-05T08:19:32;25.60;87.40
25332;DHT22;13284;52.748;13.452;2023-06-05T08:22:00;25.80;83.40
25332;DHT22;13284;52.748;13.452;2023-06-05T08:24:26;25.80;81.40
25332;DHT22;13284;52.748;13.452;2023-06-05T08:26:55;25.60;79.60
25332;DHT22;13284;52.748;13.452;2023-06-05T08:29:21;25.80;79.10
25332;DHT22;13284;52.748;13.452;2023-06-05T08:31:47;25.90;79.90
25332;DHT22;13284;52.748;13.452;2023-06-05T08:34:12;26.20;80.30
25332;DHT22;13284;52.748;13.452;2023-06-05T08:36:38;26.50;78.00
25332;DHT22;13284;52.748;13.452;2023-06-05T08:39:03;26.80;77.30
25332;DHT22;13284;52.748;13.452;2023-06-05T08:41:33;26.70;77.80
25332;DHT22;13284;52.748;13.452;2023-06-05T08:44:03;26.80;76.20
25332;DHT22;13284;52.748;13.452;2023-06-05T08:46:29;26.80;73.80
25332;DHT22;13284;52.748;13.452;2023-06-05T08:48:58;27.60;75.00
25332;DHT22;13284;52.748;13.452;2023-06-05T08:51:27;27.10;70.60
25332;DHT22;13284;52.748;13.452;2023-06-05T08:54:03;27.30;72.90
25332;DHT22;13284;52.748;13.452;2023-06-05T08:56:38;27.90;72.80
25332;DHT22;13284;52.748;13.452;2023-06-05T08:59:05;28.10;71.20
25332;DHT22;13284;52.748;13.452;2023-06-05T09:01:31;28.20;70.10
25332;DHT22;13284;52.748;13.452;2023-06-05T09:04:05;28.20;70.40
25332;DHT22;13284;52.748;13.452;2023-06-05T09:06:31;28.30;70.10
25332;DHT22;13284;52.748;13.452;2023-06-05T09:08:59;28.00;65.80
25332;DHT22;13284;52.748;13.452;2023-06-05T09:11:28;27.80;66.20
25332;DHT22;13284;52.748;13.452;2023-06-05T09:13:56;28.20;67.90
25332;DHT22;13284;52.748;13.452;2023-06-05T09:16:32;28.00;67.90
25332;DHT22;13284;52.748;13.452;2023-06-05T09:18:58;28.20;68.20
25332;DHT22;13284;52.748;13.452;2023-06-05T09:21:26;27.30;67.30
25332;DHT22;13284;52.748;13.452;2023-06-05T09:24:16;26.80;68.00
25332;DHT22;13284;52.748;13.452;2023-06-05T09:29:11;27.90;67.70
25332;DHT22;13284;52.748;13.452;2023-06-05T09:31:41;28.30;65.50
25332;DHT22;13284;52.748;13.452;2023-06-05T09:34:07;28.40;65.80
25332;DHT22;13284;52.748;13.452;2023-06-05T09:36:47;28.80;66.60
25332;DHT22;13284;52.748;13.452;2023-06-05T09:39:14;28.70;64.80
25332;DHT22;13284;52.748;13.452;2023-06-05T09:41:45;29.30;66.80
25332;DHT22;13284;52.748;13.452;2023-06-05T09:44:11;29.60;64.40
25332;DHT22;13284;52.748;13.452;2023-06-05T09:47:05;29.40;62.90
25332;DHT22;13284;52.748;13.452;2023-06-05T09:52:08;29.40;63.10
25332;DHT22;13284;52.748;13.452;2023-06-05T09:54:40;28.50;62.50
25332;DHT22;13284;52.748;13.452;2023-06-05T09:57:07;29.00;64.30
25332;DHT22;13284;52.748;13.452;2023-06-05T09:59:42;29.60;62.40
25332;DHT22;13284;52.748;13.452;2023-06-05T10:02:18;30.10;62.30
25332;DHT22;13284;52.748;13.452;2023-06-05T10:04:48;30.40;62.50
25332;DHT22;13284;52.748;13.452;2023-06-05T10:07:17;30.20;62.60
25332;DHT22;13284;52.748;13.452;2023-06-05T10:09:44;30.40;61.50
25332;DHT22;13284;52.748;13.452;2023-06-05T10:12:17;30.10;62.90
25332;DHT22;13284;52.748;13.452;2023-06-05T10:14:43;30.30;61.10
25332;DHT22;13284;52.748;13.452;2023-06-05T10:17:11;30.50;61.50
25332;DHT22;13284;52.748;13.452;2023-06-05T10:19:41;30.80;60.60
25332;DHT22;13284;52.748;13.452;2023-06-05T10:22:07;30.80;60.60
25332;DHT22;13284;52.748;13.452;2023-06-05T10:24:41;30.60;59.50
25332;DHT22;13284;52.748;13.452;2023-06-05T10:30:04;28.90;62.20
25332;DHT22;13284;52.748;13.452;2023-06-05T10:32:50;29.90;61.20
25332;DHT22;13284;52.748;13.452;2023-06-05T10:35:43;29.60;59.50
25332;DHT22;13284;52.748;13.452;2023-06-05T10:38:26;30.40;59.90
25332;DHT22;13284;52.748;13.452;2023-06-05T10:40:54;31.00;59.60
25332;DHT22;13284;52.748;13.452;2023-06-05T10:45:50;30.80;57.60
25332;DHT22;13284;52.748;13.452;2023-06-05T10:48:18;30.50;59.10
25332;DHT22;13284;52.748;13.452;2023-06-05T10:50:47;31.30;62.10
25332;DHT22;13284;52.748;13.452;2023-06-05T10:53:41;31.30;58.80
25332;DHT22;13284;52.748;13.452;2023-06-05T10:56:06;31.10;57.50
25332;DHT22;13284;52.748;13.452;2023-06-05T10:58:32;31.60;58.60
25332;DHT22;13284;52.748;13.452;2023-06-05T11:01:17;31.60;58.20
25332;DHT22;13284;52.748;13.452;2023-06-05T11:03:58;30.90;57.60
25332;DHT22;13284;52.748;13.452;2023-06-05T11:06:27;31.20;58.30
25332;DHT22;13284;52.748;13.452;2023-06-05T11:09:12;30.60;56.90
25332;DHT22;13284;52.748;13.452;2023-06-05T11:12:01;31.70;57.20
25332;DHT22;13284;52.748;13.452;2023-06-05T11:14:58;32.00;58.50
25332;DHT22;13284;52.748;13.452;2023-06-05T11:17:29;32.30;57.20
25332;DHT22;13284;52.748;13.452;2023-06-05T11:19:55;31.90;56.60
25332;DHT22;13284;52.748;13.452;2023-06-05T11:22:21;31.40;55.00
25332;DHT22;13284;52.748;13.452;2023-06-05T11:27:49;31.80;55.20
25332;DHT22;13284;52.748;13.452;2023-06-05T11:30:20;31.60;56.40
25332;DHT22;13284;52.748;13.452;2023-06-05T11:33:07;31.20;56.60
25332;DHT22;13284;52.748;13.452;2023-06-05T11:35:37;30.50;57.20
25332;DHT22;13284;52.748;13.452;2023-06-05T11:38:13;30.70;57.40
25332;DHT22;13284;52.748;13.452;2023-06-05T11:40:39;31.50;58.20
25332;DHT22;13284;52.748;13.452;2023-06-05T11:43:06;31.90;56.80
25332;DHT22;13284;52.748;13.452;2023-06-05T11:45:37;32.00;55.90
25332;DHT22;13284;52.748;13.452;2023-06-05T11:48:10;31.70;56.80
25332;DHT22;13284;52.748;13.452;2023-06-05T11:50:37;31.20;57.30
25332;DHT22;13284;52.748;13.452;2023-06-05T11:55:30;31.70;57.20
25332;DHT22;13284;52.748;13.452;2023-06-05T11:58:08;31.70;56.80
25332;DHT22;13284;52.748;13.452;2023-06-05T12:00:34;31.90;56.90
25332;DHT22;13284;52.748;13.452;2023-06-05T12:03:03;32.20;55.30
25332;DHT22;13284;52.748;13.452;2023-06-05T12:05:28;32.00;53.70
25332;DHT22;13284;52.748;13.452;2023-06-05T12:07:54;31.80;55.10
25332;DHT22;13284;52.748;13.452;2023-06-05T12:10:33;31.60;55.20
25332;DHT22;13284;52.748;13.452;2023-06-05T12:13:00;31.60;55.80
25332;DHT22;13284;52.748;13.452;2023-06-05T12:15:25;31.90;55.10
25332;DHT22;13284;52.748;13.452;2023-06-05T12:17:55;31.60;54.40
25332;DHT22;13284;52.748;13.452;2023-06-05T12:20:22;31.60;55.20
25332;DHT22;13284;52.748;13.452;2023-06-05T12:22:49;31.30;55.40
25332;DHT22;13284;52.748;13.452;2023-06-05T12:25:19;31.60;55.40
25332;DHT22;13284;52.748;13.452;2023-06-05T12:27:45;31.40;55.20
25332;DHT22;13284;52.748;13.452;2023-06-05T12:30:14;31.40;55.20
25332;DHT22;13284;52.748;13.452;2023-06-05T12:32:44;31.40;54.70
25332;DHT22;13284;52.748;13.452;2023-06-05T12:35:23;31.90;56.20
25332;DHT22;13284;52.748;13.452;2023-06-05T12:37:49;31.80;53.10
25332;DHT22;13284;52.748;13.452;2023-06-05T12:40:16;31.80;52.80
25332;DHT22;13284;52.748;13.452;2023-06-05T12:42:46;31.30;53.60
25332;DHT22;13284;52.748;13.452;2023-06-05T12:45:15;31.50;54.00
25332;DHT22;13284;52.748;13.452;2023-06-05T12:47:43;30.20;54.20
25332;DHT22;13284;52.748;13.452;2023-06-05T12:50:10;31.30;55.00
25332;DHT22;13284;52.748;13.452;2023-06-05T12:52:40;30.90;54.40
25332;DHT22;13284;52.748;13.452;2023-06-05T12:55:06;30.60;54.90
25332;DHT22;13284;52.748;13.452;2023-06-05T12:57:34;29.70;55.00
25332;DHT22;13284;52.748;13.452;2023-06-05T13:00:02;30.00;55.20
25332;DHT22;13284;52.748;13.452;2023-06-05T13:02:36;29.80;54.50
25332;DHT22;13284;52.748;13.452;2023-06-05T13:05:02;29.80;55.20
25332;DHT22;13284;52.748;13.452;2023-06-05T13:07:30;29.70;54.40
25332;DHT22;13284;52.748;13.452;2023-06-05T13:09:56;29.60;54.80
25332;DHT22;13284;52.748;13.452;2023-06-05T13:12:22;29.40;55.70
25332;DHT22;13284;52.748;13.452;2023-06-05T13:14:48;29.30;56.00
25332;DHT22;13284;52.748;13.452;2023-06-05T13:17:15;29.40;56.30
25332;DHT22;13284;52.748;13.452;2023-06-05T13:19:41;29.00;55.10
25332;DHT22;13284;52.748;13.452;2023-06-05T13:22:06;29.10;56.70
25332;DHT22;13284;52.748;13.452;2023-06-05T13:24:32;29.40;57.10
25332;DHT22;13284;52.748;13.452;2023-06-05T13:26:58;29.40;56.20
25332;DHT22;13284;52.748;13.452;2023-06-05T13:29:23;29.40;56.20
25332;DHT22;13284;52.748;13.452;2023-06-05T13:31:52;28.80;57.20
25332;DHT22;13284;52.748;13.452;2023-06-05T13:34:17;28.60;56.20
25332;DHT22;13284;52.748;13.452;2023-06-05T13:36:44;29.00;57.40
25332;DHT22;13284;52.748;13.452;2023-06-05T13:39:09;28.90;57.30
25332;DHT22;13284;52.748;13.452;2023-06-05T13:41:35;29.00;58.10
25332;DHT22;13284;52.748;13.452;2023-06-05T13:44:01;29.10;56.60
25332;DHT22;13284;52.748;13.452;2023-06-05T13:46:27;29.10;54.80
25332;DHT22;13284;52.748;13.452;2023-06-05T13:48:53;28.60;55.40
25332;DHT22;13284;52.748;13.452;2023-06-05T13:51:19;28.60;55.80
25332;DHT22;13284;52.748;13.452;2023-06-05T13:53:45;28.80;56.20
25332;DHT22;13284;52.748;13.452;2023-06-05T13:56:11;28.50;56.40
25332;DHT22;13284;52.748;13.452;2023-06-05T13:58:37;28.50;56.40
25332;DHT22;13284;52.748;13.452;2023-06-05T14:01:02;28.60;56.80
25332;DHT22;13284;52.748;13.452;2023-06-05T14:03:28;28.60;56.40
25332;DHT22;13284;52.748;13.452;2023-06-05T14:05:54;28.30;56.60
25332;DHT22;13284;52.748;13.452;2023-06-05T14:08:20;27.70;55.00
25332;DHT22;13284;52.748;13.452;2023-06-05T14:10:45;28.40;57.20
25332;DHT22;13284;52.748;13.452;2023-06-05T14:13:12;28.30;56.90
25332;DHT22;13284;52.748;13.452;2023-06-05T14:15:37;28.30;58.60
25332;DHT22;13284;52.748;13.452;2023-06-05T14:18:04;28.40;57.50
25332;DHT22;13284;52.748;13.452;2023-06-05T14:20:30;28.10;56.80
25332;DHT22;13284;52.748;13.452;2023-06-05T14:23:02;28.40;57.30
25332;DHT22;13284;52.748;13.452;2023-06-05T14:25:29;28.10;57.70
25332;DHT22;13284;52.748;13.452;2023-06-05T14:27:56;28.10;57.50
25332;DHT22;13284;52.748;13.452;2023-06-05T14:30:22;28.20;57.20
25332;DHT22;13284;52.748;13.452;2023-06-05T14:32:48;27.90;58.10
25332;DHT22;13284;52.748;13.452;2023-06-05T14:35:16;27.80;58.40
25332;DHT22;13284;52.748;13.452;2023-06-05T14:37:45;27.80;57.90
25332;DHT22;13284;52.748;13.452;2023-06-05T14:40:11;27.90;58.30
25332;DHT22;13284;52.748;13.452;2023-06-05T14:42:37;27.90;59.00
25332;DHT22;13284;52.748;13.452;2023-06-05T14:45:03;28.10;57.70
25332;DHT22;13284;52.748;13.452;2023-06-05T14:47:28;28.00;58.00
25332;DHT22;13284;52.748;13.452;2023-06-05T14:49:54;28.00;58.20
25332;DHT22;13284;52.748;13.452;2023-06-05T14:52:20;27.80;58.80
25332;DHT22;13284;52.748;13.452;2023-06-05T14:54:48;27.50;59.10
25332;DHT22;13284;52.748;13.452;2023-06-05T14:57:13;27.60;59.90
25332;DHT22;13284;52.748;13.452;2023-06-05T14:59:40;27.90;60.50
25332;DHT22;13284;52.748;13.452;2023-06-05T15:02:09;27.70;59.40
25332;DHT22;13284;52.748;13.452;2023-06-05T15:04:35;27.90;59.60
25332;DHT22;13284;52.748;13.452;2023-06-05T15:07:01;28.00;60.20
25332;DHT22;13284;52.748;13.452;2023-06-05T15:09:27;28.10;60.50
25332;DHT22;13284;52.748;13.452;2023-06-05T15:11:52;28.20;59.60
25332;DHT22;13284;52.748;13.452;2023-06-05T15:14:21;28.00;59.70
25332;DHT22;13284;52.748;13.452;2023-06-05T15:16:47;28.20;60.80
25332;DHT22;13284;52.748;13.452;2023-06-05T15:19:13;27.90;60.30
25332;DHT22;13284;52.748;13.452;2023-06-05T15:21:38;27.50;60.50
25332;DHT22;13284;52.748;13.452;2023-06-05T15:24:04;27.80;61.30
25332;DHT22;13284;52.748;13.452;2023-06-05T15:26:30;27.70;60.60
25332;DHT22;13284;52.748;13.452;2023-06-05T15:28:56;27.90;61.00
25332;DHT22;13284;52.748;13.452;2023-06-05T15:31:24;27.90;60.20
25332;DHT22;13284;52.748;13.452;2023-06-05T15:33:49;27.80;59.90
25332;DHT22;13284;52.748;13.452;2023-06-05T15:36:15;27.90;59.90
25332;DHT22;13284;52.748;13.452;2023-06-05T15:38:40;27.90;59.30